Time;durP1;ratioP1;P1;durP2;ratioP2;P2;SDS_P1;SDS_P2;PMS_P1;PMS_P2;Temp;Humidity;BMP_temperature;BMP_pressure;BME280_temperature;BME280_humidity;BME280_pressure;Samples;Min_cycle;Max_cycle;Signal;HPM_P1;HPM_P2
2021/06/26 00:00:14;;;;;;;20.45;4.40;;;;;;;26.99;45.78;94588.97;2985469;39;20219;-72
2021/06/26 00:02:15;;;;;;;19.83;4.68;;;;;;;27.06;46.55;94596.78;2988046;39;20155;-73
2021/06/26 00:04:17;;;;;;;18.40;4.40;;;;;;;27.11;46.40;94592.25;2992963;39;20112;-72
2021/06/26 00:06:19;;;;;;;19.35;4.40;;;;;;;27.18;45.83;94592.78;2992012;39;20144;-71
2021/06/26 00:08:22;;;;;;;17.42;4.20;;;;;;;27.25;46.46;94589.06;2993638;39;20349;-72
2021/06/26 00:10:23;;;;;;;16.35;4.65;;;;;;;27.34;46.36;94590.16;2992768;39;20143;-72
2021/06/26 00:12:25;;;;;;;14.07;4.40;;;;;;;27.42;45.98;94599.59;2992644;39;20402;-72
2021/06/26 00:14:27;;;;;;;17.77;4.63;;;;;;;27.49;45.56;94600.13;2983140;39;20052;-72
2021/06/26 00:16:29;;;;;;;22.55;4.80;;;;;;;27.54;45.83;94600.16;2997858;39;20095;-71
2021/06/26 00:18:31;;;;;;;18.25;5.00;;;;;;;27.60;45.65;94607.16;2999342;39;20077;-70
2021/06/26 00:20:33;;;;;;;15.55;4.45;;;;;;;27.64;44.59;94605.56;2994153;39;20501;-71
2021/06/26 00:22:35;;;;;;;22.05;4.65;;;;;;;27.66;44.75;94610.66;2996709;39;20295;-81
2021/06/26 00:24:37;;;;;;;18.98;4.60;;;;;;;27.10;46.88;94622.91;3000641;39;20046;-72
2021/06/26 00:26:39;;;;;;;18.27;4.82;;;;;;;26.50;48.57;94613.47;2987178;39;20074;-72
2021/06/26 00:28:40;;;;;;;19.48;5.35;;;;;;;26.25;48.96;94612.28;2986244;39;20419;-72
2021/06/26 00:30:42;;;;;;;19.40;4.57;;;;;;;26.26;48.95;94613.06;2984931;39;20059;-71
2021/06/26 00:32:44;;;;;;;33.50;7.40;;;;;;;25.84;51.08;94613.84;2988627;39;20047;-70
2021/06/26 00:34:46;;;;;;;18.40;4.63;;;;;;;25.73;51.81;94611.06;2993893;39;20099;-72
2021/06/26 00:36:49;;;;;;;21.02;6.57;;;;;;;25.48;52.95;94608.97;2992538;39;20062;-70
2021/06/26 00:38:50;;;;;;;16.98;4.57;;;;;;;25.51;53.09;94602.28;2987165;39;20135;-72
2021/06/26 00:40:52;;;;;;;22.58;5.63;;;;;;;25.59;53.06;94607.19;2987984;39;20426;-71
2021/06/26 00:42:54;;;;;;;14.48;4.22;;;;;;;25.79;52.21;94606.56;2990471;39;20071;-71
2021/06/26 00:44:55;;;;;;;17.65;5.07;;;;;;;26.01;51.60;94609.16;2990542;39;20051;-72
2021/06/26 00:47:01;;;;;;;21.65;4.97;;;;;;;26.23;50.91;94603.66;2991090;39;20051;-71
2021/06/26 00:49:04;;;;;;;23.25;5.40;;;;;;;26.41;50.48;94604.31;2981909;39;20274;-71
2021/06/26 00:51:05;;;;;;;18.88;4.65;;;;;;;26.56;49.90;94607.09;2991832;39;20047;-72
2021/06/26 00:53:07;;;;;;;24.83;5.70;;;;;;;26.69;49.89;94603.13;2990531;39;20329;-72
2021/06/26 00:55:10;;;;;;;19.83;4.95;;;;;;;26.80;49.54;94607.47;2989665;39;20127;-73
2021/06/26 00:57:12;;;;;;;20.85;5.03;;;;;;;26.38;50.12;94604.84;2978290;39;20135;-72
2021/06/26 00:59:15;;;;;;;28.40;4.50;;;;;;;26.44;49.23;94596.53;2978947;39;20060;-71
2021/06/26 01:01:17;;;;;;;13.07;4.38;;;;;;;26.53;49.17;94588.78;2981985;39;20405;-73
2021/06/26 01:03:20;;;;;;;20.30;4.10;;;;;;;26.63;48.61;94594.25;2980429;39;20141;-72
2021/06/26 01:05:22;;;;;;;18.63;3.93;;;;;;;26.76;48.27;94587.59;2987961;39;20079;-73
2021/06/26 01:07:24;;;;;;;20.58;4.30;;;;;;;26.66;48.52;94588.34;2992702;39;20297;-72
2021/06/26 01:09:25;;;;;;;19.33;4.47;;;;;;;26.61;48.42;94576.75;2982772;39;20062;-72
2021/06/26 01:11:28;;;;;;;20.73;4.53;;;;;;;26.63;48.37;94577.31;2991731;39;20312;-71
2021/06/26 01:13:31;;;;;;;15.75;4.45;;;;;;;26.66;47.85;94568.72;2986405;39;20063;-73
2021/06/26 01:15:33;;;;;;;16.73;4.45;;;;;;;26.73;47.86;94569.28;2974382;39;20048;-72
2021/06/26 01:17:35;;;;;;;20.40;3.90;;;;;;;26.80;47.90;94556.41;2991906;39;20424;-72
2021/06/26 01:19:37;;;;;;;19.17;4.60;;;;;;;26.89;47.51;94560.22;2992012;39;20059;-71
2021/06/26 01:21:39;;;;;;;16.92;4.10;;;;;;;26.95;47.24;94558.31;2992236;39;20159;-81
2021/06/26 01:23:46;;;;;;;19.38;4.53;;;;;;;26.98;47.15;94547.06;2983403;39;20124;-80
2021/06/26 01:25:48;;;;;;;15.05;4.45;;;;;;;26.98;47.45;94546.25;2983528;39;20400;-80
2021/06/26 01:27:51;;;;;;;19.63;4.72;;;;;;;26.95;47.72;94545.72;2983262;39;20144;-81
2021/06/26 01:29:53;;;;;;;15.77;4.37;;;;;;;26.93;47.72;94555.94;2983943;39;20091;-80
2021/06/26 01:31:56;;;;;;;20.02;4.10;;;;;;;26.70;48.38;94551.00;2981117;39;20151;-81
2021/06/26 01:33:58;;;;;;;13.93;4.43;;;;;;;26.61;48.51;94561.47;2992183;39;20426;-79
2021/06/26 01:36:00;;;;;;;18.17;3.65;;;;;;;26.18;49.46;94555.31;2985377;39;20119;-82
2021/06/26 01:38:03;;;;;;;16.92;4.22;;;;;;;26.14;49.30;94560.41;2992622;39;20476;-80
2021/06/26 01:40:06;;;;;;;24.83;6.07;;;;;;;26.16;49.74;94557.47;2983136;39;20144;-80
2021/06/26 01:42:08;;;;;;;27.88;5.72;;;;;;;26.12;51.42;94557.16;2991877;39;20362;-81
2021/06/26 01:44:10;;;;;;;20.77;4.95;;;;;;;26.08;51.80;94566.00;2992746;39;20143;-81
2021/06/26 01:46:11;;;;;;;23.17;4.78;;;;;;;26.10;51.79;94559.28;2992091;39;20051;-79
2021/06/26 01:48:13;;;;;;;23.05;5.10;;;;;;;26.15;52.94;94578.09;2982988;39;20051;-80
2021/06/26 01:50:16;;;;;;;16.20;4.82;;;;;;;26.11;53.50;94576.19;2992820;39;20296;-81
2021/06/26 01:52:18;;;;;;;19.38;5.55;;;;;;;26.17;52.89;94575.16;2991999;39;20078;-79
2021/06/26 01:54:20;;;;;;;14.07;4.63;;;;;;;26.24;52.42;94574.94;2992641;39;20112;-80
2021/06/26 01:56:22;;;;;;;18.55;4.63;;;;;;;26.31;52.26;94587.06;2993140;39;20305;-80
2021/06/26 01:58:24;;;;;;;17.15;4.70;;;;;;;26.36;52.32;94589.78;2998629;39;20415;-80
2021/06/26 02:00:26;;;;;;;20.17;5.10;;;;;;;26.37;53.36;94601.31;2996372;39;20483;-82
2021/06/26 02:02:28;;;;;;;16.73;5.30;;;;;;;26.30;54.60;94600.75;2992432;39;20139;-82
2021/06/26 02:04:30;;;;;;;20.17;5.07;;;;;;;26.18;54.67;94609.00;2993189;39;20078;-82
2021/06/26 02:06:32;;;;;;;11.85;4.95;;;;;;;26.13;54.44;94612.44;2991070;39;20412;-82
2021/06/26 02:08:33;;;;;;;15.80;4.85;;;;;;;26.13;54.59;94609.75;2989638;39;20108;-80
2021/06/26 02:10:35;;;;;;;18.40;4.65;;;;;;;26.15;54.41;94607.63;2994594;39;20410;-81
2021/06/26 02:12:37;;;;;;;19.70;6.00;;;;;;;26.19;54.56;94607.94;2983850;39;20051;-80
2021/06/26 02:14:41;;;;;;;22.67;7.28;;;;;;;26.19;54.43;94613.31;2983951;39;20132;-79
2021/06/26 02:16:43;;;;;;;23.85;6.15;;;;;;;26.17;54.41;94622.69;2991500;39;20058;-80
2021/06/26 02:18:44;;;;;;;18.67;4.95;;;;;;;26.12;54.77;94612.72;2992016;39;20248;-81
2021/06/26 02:20:46;;;;;;;21.35;5.15;;;;;;;26.07;54.49;94615.38;2981492;39;20115;-82
2021/06/26 02:22:48;;;;;;;16.83;5.63;;;;;;;26.05;54.61;94617.50;2993602;39;20150;-80
2021/06/26 02:24:50;;;;;;;19.48;5.30;;;;;;;26.06;54.51;94617.25;2993065;39;20059;-79
2021/06/26 02:26:51;;;;;;;20.70;5.43;;;;;;;26.08;54.23;94614.31;2991615;39;20058;-81
2021/06/26 02:28:53;;;;;;;18.55;5.05;;;;;;;26.09;54.25;94613.22;2995539;39;20500;-81
2021/06/26 02:30:55;;;;;;;17.75;6.07;;;;;;;26.09;54.09;94613.22;2992900;39;20071;-80
2021/06/26 02:32:57;;;;;;;20.55;4.57;;;;;;;26.13;53.83;94607.09;2994584;39;20116;-81
2021/06/26 02:34:58;;;;;;;20.17;8.20;;;;;;;26.13;53.96;94601.72;2982090;39;20168;-80
2021/06/26 02:37:00;;;;;;;14.55;5.10;;;;;;;26.11;54.01;94603.88;2993156;39;20455;-81
2021/06/26 02:39:02;;;;;;;15.52;4.35;;;;;;;26.08;54.08;94588.28;2983003;39;20404;-81
2021/06/26 02:41:04;;;;;;;17.85;4.57;;;;;;;26.09;53.97;94591.75;2990725;39;20058;-80
2021/06/26 02:43:06;;;;;;;20.00;5.07;;;;;;;26.09;53.67;94589.06;2982568;39;20136;-81
2021/06/26 02:45:08;;;;;;;26.00;5.43;;;;;;;26.08;53.45;94585.59;2984107;39;20105;-80
2021/06/26 02:47:10;;;;;;;16.70;4.53;;;;;;;26.04;54.19;94592.53;2993293;39;20400;-80
2021/06/26 02:49:12;;;;;;;21.33;4.50;;;;;;;25.93;54.06;94588.16;2983727;39;20055;-71
2021/06/26 02:51:14;;;;;;;17.75;5.30;;;;;;;25.87;53.99;94584.59;2983596;39;20063;-71
2021/06/26 02:53:16;;;;;;;15.02;4.28;;;;;;;25.78;54.40;94579.97;2975181;39;20135;-72
2021/06/26 02:55:17;;;;;;;17.27;4.38;;;;;;;25.65;54.68;94573.19;2993152;39;20099;-73
2021/06/26 02:57:19;;;;;;;26.50;4.93;;;;;;;25.55;55.07;94579.25;2993226;39;20502;-72
2021/06/26 02:59:21;;;;;;;20.95;4.90;;;;;;;25.57;55.04;94570.97;2991963;39;20111;-72
2021/06/26 03:01:22;;;;;;;17.30;5.15;;;;;;;25.51;55.38;94568.25;2982557;39;20132;-71
2021/06/26 03:03:24;;;;;;;20.02;5.28;;;;;;;25.51;55.65;94564.72;2989735;39;20112;-71
2021/06/26 03:05:26;;;;;;;18.67;5.43;;;;;;;25.37;55.97;94566.25;2993053;39;20046;-71
2021/06/26 03:07:28;;;;;;;21.85;6.05;;;;;;;25.17;56.83;94572.16;2992915;39;20075;-72
2021/06/26 03:09:29;;;;;;;18.42;4.93;;;;;;;24.97;57.46;94575.47;2992689;39;20155;-73
2021/06/26 03:11:31;;;;;;;24.77;6.07;;;;;;;24.95;57.60;94570.34;2992833;39;20051;-72
2021/06/26 03:13:33;;;;;;;22.55;6.38;;;;;;;25.01;57.59;94569.34;2983286;39;20040;-71
2021/06/26 03:15:35;;;;;;;18.70;5.57;;;;;;;25.10;57.24;94580.41;2991785;39;20131;-72
2021/06/26 03:17:37;;;;;;;22.75;5.35;;;;;;;25.14;56.86;94577.00;2992726;39;20119;-71
2021/06/26 03:19:38;;;;;;;23.25;5.45;;;;;;;25.27;56.57;94574.97;2984201;39;20139;-71
2021/06/26 03:21:41;;;;;;;14.00;4.35;;;;;;;25.39;56.25;94585.56;2993563;39;20439;-71
2021/06/26 03:23:43;;;;;;;17.40;4.97;;;;;;;25.50;55.78;94576.53;2993268;39;20062;-72
2021/06/26 03:25:44;;;;;;;26.88;5.63;;;;;;;25.55;55.39;94571.22;2992822;39;20743;-71
2021/06/26 03:27:46;;;;;;;18.40;5.60;;;;;;;25.63;55.26;94581.47;2988243;39;20064;-73
2021/06/26 03:29:48;;;;;;;18.92;4.70;;;;;;;25.70;54.60;94568.63;2992296;39;20059;-72
2021/06/26 03:31:50;;;;;;;14.48;4.47;;;;;;;25.77;54.57;94575.66;2982150;39;20051;-71
2021/06/26 03:33:52;;;;;;;16.65;5.47;;;;;;;25.81;54.69;94569.53;2992690;39;20423;-72
2021/06/26 03:35:54;;;;;;;20.55;5.55;;;;;;;25.87;54.34;94573.06;2980195;39;20318;-71
2021/06/26 03:37:55;;;;;;;22.45;5.63;;;;;;;25.91;54.06;94575.00;2990961;39;20143;-70
2021/06/26 03:39:57;;;;;;;24.30;5.70;;;;;;;25.98;54.40;94576.66;2980807;39;20067;-72
2021/06/26 03:41:59;;;;;;;21.70;5.03;;;;;;;26.03;54.19;94580.19;2982915;39;20046;-72
2021/06/26 03:44:01;;;;;;;17.25;5.13;;;;;;;26.09;54.16;94584.53;2992074;39;20081;-80
2021/06/26 03:46:03;;;;;;;17.58;5.03;;;;;;;26.10;54.66;94590.69;2980414;39;20050;-80
2021/06/26 03:48:05;;;;;;;17.92;4.72;;;;;;;26.14;54.60;94586.44;2992712;39;20051;-80
2021/06/26 03:50:08;;;;;;;18.45;4.78;;;;;;;26.19;54.50;94594.50;2975744;39;20071;-79
2021/06/26 03:52:10;;;;;;;20.90;6.15;;;;;;;25.90;54.64;94594.06;2992243;39;20055;-80
2021/06/26 03:54:11;;;;;;;15.75;5.18;;;;;;;25.64;55.42;94601.88;2993568;39;20051;-80
2021/06/26 03:56:14;;;;;;;18.67;5.15;;;;;;;25.43;56.26;94602.75;2992921;39;20055;-81
2021/06/26 03:58:15;;;;;;;18.08;5.70;;;;;;;25.44;56.50;94607.06;2996606;39;20063;-80
2021/06/26 04:00:17;;;;;;;16.30;4.03;;;;;;;25.40;54.38;94612.09;2989950;39;20102;-78
2021/06/26 04:02:19;;;;;;;20.30;5.57;;;;;;;25.10;53.36;94607.22;2990743;39;20127;-82
2021/06/26 04:04:21;;;;;;;20.83;4.85;;;;;;;24.89;54.53;94616.94;2982263;39;20425;-81
2021/06/26 04:06:22;;;;;;;27.42;4.90;;;;;;;24.71;55.28;94624.19;2983464;39;20059;-80
2021/06/26 04:08:24;;;;;;;22.85;4.20;;;;;;;24.33;55.36;94622.34;2993548;39;20598;-80
2021/06/26 04:10:27;;;;;;;14.35;4.20;;;;;;;24.28;55.63;94633.78;2984839;39;20100;-80
2021/06/26 04:12:29;;;;;;;23.33;4.82;;;;;;;24.35;55.27;94625.59;2982909;39;20055;-81
2021/06/26 04:14:31;;;;;;;18.13;4.35;;;;;;;24.35;55.58;94624.75;2987654;39;20082;-81
2021/06/26 04:16:33;;;;;;;24.52;5.40;;;;;;;24.62;54.65;94614.97;2983338;39;20058;-81
2021/06/26 04:18:34;;;;;;;14.55;3.75;;;;;;;24.98;54.48;94625.31;2992929;39;20404;-81
2021/06/26 04:20:36;;;;;;;23.42;5.45;;;;;;;25.26;54.05;94622.44;2994227;39;20278;-80
2021/06/26 04:22:39;;;;;;;16.83;3.92;;;;;;;25.53;53.18;94622.44;2994131;39;20090;-80
2021/06/26 04:24:41;;;;;;;17.70;4.28;;;;;;;25.75;51.91;94632.28;2993704;39;20134;-79
2021/06/26 04:26:42;;;;;;;18.25;4.10;;;;;;;25.91;51.16;94617.13;2993241;39;20075;-80
2021/06/26 04:28:44;;;;;;;18.08;4.65;;;;;;;26.08;50.87;94620.47;2983306;39;20501;-72
2021/06/26 04:30:46;;;;;;;20.98;4.30;;;;;;;26.23;50.50;94621.66;2978608;39;20333;-72
2021/06/26 04:32:48;;;;;;;17.65;5.15;;;;;;;26.40;49.68;94633.03;2992567;39;20065;-73
2021/06/26 04:34:49;;;;;;;19.95;4.57;;;;;;;26.50;49.16;94627.72;2982621;39;20051;-72
2021/06/26 04:36:51;;;;;;;20.63;5.10;;;;;;;26.64;49.40;94630.78;2992240;39;20147;-72
2021/06/26 04:38:53;;;;;;;17.08;4.35;;;;;;;26.70;49.79;94624.38;2992743;39;20492;-72
2021/06/26 04:40:55;;;;;;;20.25;4.38;;;;;;;26.74;50.24;94628.16;2992311;39;20071;-72
2021/06/26 04:42:57;;;;;;;14.95;4.72;;;;;;;26.65;49.91;94620.84;2985684;39;20067;-72
2021/06/26 04:44:58;;;;;;;17.48;5.47;;;;;;;26.60;50.48;94628.88;2995224;39;20412;-72
2021/06/26 04:47:01;;;;;;;19.10;4.90;;;;;;;26.68;50.23;94628.38;2982743;39;20176;-73
2021/06/26 04:49:04;;;;;;;17.17;5.60;;;;;;;26.73;50.27;94625.72;2982819;39;20140;-72
2021/06/26 04:51:06;;;;;;;;;;;;;;;26.12;50.78;94626.16;2993291;39;20134;-72
2021/06/26 04:53:08;;;;;;;13.95;4.45;;;;;;;25.93;51.15;94629.22;2992361;39;19943;-71
2021/06/26 04:55:10;;;;;;;19.63;4.88;;;;;;;26.04;50.16;94623.94;2992032;39;20081;-72
2021/06/26 04:57:11;;;;;;;19.38;4.72;;;;;;;26.01;49.85;94622.59;2992696;39;20175;-73
2021/06/26 04:59:13;;;;;;;28.70;6.80;;;;;;;26.03;49.57;94625.81;2992580;39;20047;-73
2021/06/26 05:01:15;;;;;;;20.35;5.13;;;;;;;25.99;49.28;94626.59;2991973;39;20066;-72
2021/06/26 05:03:18;;;;;;;20.23;5.35;;;;;;;26.12;49.55;94628.84;2982788;39;20073;-72
2021/06/26 05:05:20;;;;;;;25.45;5.40;;;;;;;26.23;51.74;94637.78;2992629;39;20078;-72
2021/06/26 05:07:22;;;;;;;17.90;4.32;;;;;;;26.34;51.26;94642.13;2992324;39;20042;-73
2021/06/26 05:09:24;;;;;;;23.65;5.05;;;;;;;26.45;51.52;94630.38;2992453;39;20063;-74
2021/06/26 05:11:25;;;;;;;25.17;5.22;;;;;;;26.66;51.08;94638.59;2982504;39;20097;-71
2021/06/26 05:13:27;;;;;;;23.90;5.60;;;;;;;26.79;51.27;94637.31;2991980;39;20086;-71
2021/06/26 05:15:29;;;;;;;18.08;5.07;;;;;;;26.82;51.76;94634.09;2991338;39;20055;-71
2021/06/26 05:17:30;;;;;;;21.23;5.78;;;;;;;26.83;52.23;94636.50;2991949;39;20135;-71
2021/06/26 05:19:32;;;;;;;22.83;5.47;;;;;;;26.83;52.06;94638.41;2991876;39;20412;-72
2021/06/26 05:21:34;;;;;;;19.15;5.78;;;;;;;26.85;51.92;94629.00;2992291;39;20131;-73
2021/06/26 05:23:36;;;;;;;16.98;4.85;;;;;;;26.84;52.25;94621.19;2992612;39;20059;-73
2021/06/26 05:25:38;;;;;;;22.30;5.07;;;;;;;26.82;52.06;94632.19;2992073;39;20082;-72
2021/06/26 05:27:40;;;;;;;22.02;5.50;;;;;;;26.72;51.07;94624.13;2983069;39;20095;-74
2021/06/26 05:29:43;;;;;;;20.33;5.53;;;;;;;26.49;51.59;94634.16;2982675;39;20143;-70
2021/06/26 05:31:45;;;;;;;21.10;5.33;;;;;;;26.24;52.36;94634.84;2990767;39;20119;-73
2021/06/26 05:33:46;;;;;;;17.85;4.78;;;;;;;26.41;52.20;94633.84;2991863;39;20091;-73
2021/06/26 05:35:49;;;;;;;20.25;5.53;;;;;;;26.33;52.59;94635.16;2992281;39;20369;-73
2021/06/26 05:37:51;;;;;;;14.40;5.07;;;;;;;26.32;52.54;94628.97;2992383;39;20344;-71
2021/06/26 05:39:53;;;;;;;18.55;5.15;;;;;;;26.36;52.80;94637.31;2989879;39;20096;-72
2021/06/26 05:41:54;;;;;;;19.25;6.00;;;;;;;26.30;53.56;94636.47;2982925;39;20112;-73
2021/06/26 05:43:56;;;;;;;19.55;5.07;;;;;;;26.22;51.95;94633.44;2991244;39;20427;-73
2021/06/26 05:45:58;;;;;;;24.33;7.30;;;;;;;26.19;52.32;94636.66;2982159;39;20054;-72
2021/06/26 05:48:00;;;;;;;21.20;5.63;;;;;;;26.19;51.61;94639.34;2992346;39;20142;-75
2021/06/26 05:50:01;;;;;;;21.13;6.15;;;;;;;26.22;52.58;94631.59;2992157;39;20047;-72
2021/06/26 05:52:03;;;;;;;25.52;6.90;;;;;;;26.35;52.50;94633.03;2983117;39;20063;-73
2021/06/26 05:54:05;;;;;;;17.42;5.53;;;;;;;26.57;52.33;94637.47;2992100;39;20079;-72
2021/06/26 05:56:07;;;;;;;22.55;4.90;;;;;;;26.84;51.62;94632.75;2991778;39;20324;-72
2021/06/26 05:58:08;;;;;;;22.52;5.25;;;;;;;26.82;51.25;94634.09;2992021;39;20087;-72
2021/06/26 06:00:12;;;;;;;22.58;5.80;;;;;;;26.99;50.99;94637.38;2991381;39;20170;-72
2021/06/26 06:02:14;;;;;;;23.40;6.15;;;;;;;27.20;50.81;94632.88;2992081;39;20419;-72
2021/06/26 06:04:16;;;;;;;22.33;5.22;;;;;;;27.37;49.31;94638.06;2982326;39;20059;-73
2021/06/26 06:06:18;;;;;;;18.45;5.18;;;;;;;27.54;49.06;94627.88;2991793;39;20071;-72
2021/06/26 06:08:21;;;;;;;21.13;7.30;;;;;;;27.73;48.85;94628.16;2982825;39;20060;-73
2021/06/26 06:10:23;;;;;;;20.02;5.38;;;;;;;27.91;49.00;94623.34;2973913;39;20513;-72
2021/06/26 06:12:24;;;;;;;20.30;5.63;;;;;;;28.05;49.01;94629.81;2992976;39;20628;-73
2021/06/26 06:14:26;;;;;;;19.88;5.22;;;;;;;27.94;49.29;94631.69;2992794;39;20115;-72
2021/06/26 06:16:29;;;;;;;23.83;6.53;;;;;;;27.94;49.54;94630.88;2973445;39;20403;-72
2021/06/26 06:18:31;;;;;;;21.55;5.20;;;;;;;28.04;49.73;94622.78;2986632;39;20054;-71
2021/06/26 06:20:33;;;;;;;15.90;5.43;;;;;;;28.14;49.44;94633.56;2991858;39;20070;-71
2021/06/26 06:22:36;;;;;;;18.17;5.47;;;;;;;28.16;50.36;94625.22;2974632;39;20136;-73
2021/06/26 06:24:38;;;;;;;14.75;4.85;;;;;;;28.24;49.41;94637.31;2982473;39;20064;-73
2021/06/26 06:26:40;;;;;;;23.20;5.55;;;;;;;28.35;48.85;94644.28;2991204;39;20147;-73
2021/06/26 06:28:41;;;;;;;23.88;5.85;;;;;;;28.37;49.16;94634.06;2982153;39;20100;-73
2021/06/26 06:30:43;;;;;;;25.70;7.10;;;;;;;28.45;48.71;94625.44;2969617;39;20123;-73
2021/06/26 06:32:45;;;;;;;21.17;6.10;;;;;;;28.55;48.21;94632.72;2974070;39;20052;-73
2021/06/26 06:34:47;;;;;;;17.42;5.68;;;;;;;28.61;48.01;94628.94;2992083;39;20095;-73
2021/06/26 06:36:49;;;;;;;17.80;5.45;;;;;;;28.71;47.60;94622.69;2992164;39;20162;-72
2021/06/26 06:38:51;;;;;;;24.13;5.47;;;;;;;28.73;47.90;94623.22;2991906;39;20411;-72
2021/06/26 06:40:52;;;;;;;19.38;5.13;;;;;;;28.75;47.28;94621.06;2991264;39;20347;-71
2021/06/26 06:42:54;;;;;;;17.08;5.20;;;;;;;28.65;47.16;94619.19;2991788;39;20433;-72
2021/06/26 06:44:56;;;;;;;25.00;9.52;;;;;;;28.75;47.07;94615.66;2995762;39;20047;-72
2021/06/26 06:46:58;;;;;;;24.67;9.18;;;;;;;28.85;47.37;94623.72;2991577;39;20119;-73
2021/06/26 06:49:00;;;;;;;22.45;6.50;;;;;;;28.79;47.66;94624.81;2989848;39;20373;-73
2021/06/26 06:51:02;;;;;;;25.33;6.78;;;;;;;28.79;47.06;94619.44;2991027;39;20051;-73
2021/06/26 06:53:04;;;;;;;21.33;5.88;;;;;;;28.87;46.57;94620.75;2973947;39;20064;-74
2021/06/26 06:55:07;;;;;;;23.23;5.57;;;;;;;28.99;46.28;94627.41;2990513;39;20047;-73
2021/06/26 06:57:09;;;;;;;27.05;5.63;;;;;;;29.00;46.24;94618.25;2986266;39;20311;-75
2021/06/26 06:59:10;;;;;;;22.65;5.95;;;;;;;29.06;45.93;94613.66;2996806;39;20095;-75
2021/06/26 07:01:12;;;;;;;23.15;5.35;;;;;;;28.95;46.15;94620.16;2981951;39;20124;-71
2021/06/26 07:03:14;;;;;;;19.20;6.55;;;;;;;28.95;45.91;94620.16;2987894;39;20047;-73
2021/06/26 07:05:16;;;;;;;15.43;4.90;;;;;;;29.09;45.71;94625.78;2982017;39;20379;-73
2021/06/26 07:07:17;;;;;;;22.15;5.32;;;;;;;28.99;45.78;94621.22;2982135;39;20071;-75
2021/06/26 07:09:19;;;;;;;19.92;5.47;;;;;;;29.08;45.08;94618.75;2981997;39;20052;-72
2021/06/26 07:11:22;;;;;;;21.35;7.38;;;;;;;29.20;44.91;94619.28;2991094;39;20190;-72
2021/06/26 07:13:24;;;;;;;18.35;5.53;;;;;;;29.38;44.58;94615.13;2991249;39;20059;-72
2021/06/26 07:15:26;;;;;;;24.38;6.30;;;;;;;29.28;44.25;94616.00;2990445;39;20070;-72
2021/06/26 07:17:28;;;;;;;21.98;5.32;;;;;;;29.22;43.89;94610.91;2991985;39;20051;-72
2021/06/26 07:19:29;;;;;;;21.08;5.40;;;;;;;29.02;43.40;94606.38;2975965;39;20425;-72
2021/06/26 07:21:32;;;;;;;19.35;4.93;;;;;;;28.89;43.35;94610.47;2982729;39;20050;-73
2021/06/26 07:23:34;;;;;;;26.95;7.03;;;;;;;29.10;43.39;94605.84;2993150;39;20043;-72
2021/06/26 07:25:36;;;;;;;22.95;5.10;;;;;;;29.34;42.57;94604.09;2975136;39;20044;-73
2021/06/26 07:27:38;;;;;;;15.10;4.68;;;;;;;29.54;42.30;94605.06;2990352;39;20059;-71
2021/06/26 07:29:40;;;;;;;17.48;4.47;;;;;;;29.67;41.72;94604.41;2993591;39;20131;-72
2021/06/26 07:31:42;;;;;;;20.58;4.85;;;;;;;29.86;41.35;94606.44;2982693;39;20055;-74
2021/06/26 07:33:44;;;;;;;21.55;5.50;;;;;;;29.87;41.03;94613.47;2984038;39;20059;-73
2021/06/26 07:35:45;;;;;;;20.60;4.78;;;;;;;29.80;40.65;94606.50;2993000;39;20051;-73
2021/06/26 07:37:47;;;;;;;23.92;4.82;;;;;;;29.76;40.01;94605.44;2993130;39;20166;-73
2021/06/26 07:39:49;;;;;;;26.67;4.55;;;;;;;29.34;40.64;94611.38;2991195;39;20055;-73
2021/06/26 07:41:51;;;;;;;19.25;4.53;;;;;;;29.33;40.77;94612.47;2988879;39;20067;-73
2021/06/26 07:43:53;;;;;;;14.07;4.90;;;;;;;29.10;40.92;94603.94;2997899;39;20350;-72
2021/06/26 07:45:55;;;;;;;20.45;4.28;;;;;;;29.43;40.31;94614.28;2982728;39;20055;-73
2021/06/26 07:47:57;;;;;;;21.27;4.22;;;;;;;29.70;39.26;94613.88;2987628;39;20303;-72
2021/06/26 07:49:58;;;;;;;17.15;5.13;;;;;;;29.84;39.04;94604.03;2992987;39;20054;-72
2021/06/26 07:52:00;;;;;;;21.42;4.43;;;;;;;29.96;38.57;94609.06;2983314;39;20080;-73
2021/06/26 07:54:02;;;;;;;19.08;5.30;;;;;;;29.97;38.68;94599.88;2982518;39;20039;-73
2021/06/26 07:56:04;;;;;;;24.23;4.80;;;;;;;30.15;37.77;94603.75;2982343;39;20149;-73
2021/06/26 07:58:06;;;;;;;20.00;4.43;;;;;;;29.99;37.07;94605.81;2980690;39;20686;-73
2021/06/26 08:00:11;;;;;;;17.73;4.43;;;;;;;29.92;37.11;94602.59;2988817;39;20485;-73
2021/06/26 08:02:13;;;;;;;18.33;4.18;;;;;;;30.09;37.43;94608.41;2993154;39;20055;-73
2021/06/26 08:04:15;;;;;;;22.58;4.57;;;;;;;30.31;37.26;94607.16;2991572;39;20075;-72
2021/06/26 08:06:16;;;;;;;22.70;4.60;;;;;;;30.35;36.37;94602.78;2983793;39;20143;-72
2021/06/26 08:08:19;;;;;;;14.15;3.25;;;;;;;30.19;31.74;94607.50;2983107;39;20071;-73
2021/06/26 08:10:21;;;;;;;15.13;2.92;;;;;;;29.75;31.61;94611.13;2983118;39;20063;-73
2021/06/26 08:12:23;;;;;;;8.85;2.65;;;;;;;29.91;30.92;94604.50;2983309;39;20052;-72
2021/06/26 08:14:24;;;;;;;14.13;3.55;;;;;;;30.14;30.72;94613.78;2992228;39;20276;-72
2021/06/26 08:16:27;;;;;;;17.92;3.67;;;;;;;29.80;31.23;94614.59;2989554;39;20139;-73
2021/06/26 08:18:28;;;;;;;10.65;2.35;;;;;;;29.87;31.01;94602.66;2991710;39;20063;-74
2021/06/26 08:20:31;;;;;;;15.65;3.78;;;;;;;29.77;31.47;94604.38;2992807;39;20063;-74
2021/06/26 08:22:32;;;;;;;16.45;3.40;;;;;;;29.88;31.19;94604.25;2974554;39;20060;-72
2021/06/26 08:24:34;;;;;;;18.58;3.25;;;;;;;30.03;31.16;94604.16;2982264;39;20060;-72
2021/06/26 08:26:39;;;;;;;19.10;3.85;;;;;;;30.14;30.31;94602.97;2991707;39;20047;-72
2021/06/26 08:28:41;;;;;;;19.02;3.63;;;;;;;30.25;30.94;94597.47;2982263;39;20821;-82
2021/06/26 08:30:42;;;;;;;16.50;3.40;;;;;;;30.47;31.17;94592.41;2971074;39;20048;-80
2021/06/26 08:32:44;;;;;;;20.90;3.63;;;;;;;30.46;30.35;94608.88;2992813;39;20298;-81
2021/06/26 08:34:46;;;;;;;13.45;2.50;;;;;;;30.56;29.98;94603.38;2992904;39;20110;-81
2021/06/26 08:37:06;;;;;;;12.95;3.55;;;;;;;30.74;30.10;94593.69;2994643;39;20333;-83
2021/06/26 08:39:08;;;;;;;15.73;2.85;;;;;;;31.02;30.02;94600.19;2993783;39;20058;-83
2021/06/26 08:41:10;;;;;;;15.07;3.38;;;;;;;30.91;29.91;94601.38;2981240;39;20143;-82
2021/06/26 08:43:12;;;;;;;11.85;2.85;;;;;;;30.45;30.83;94608.09;2972545;39;20112;-82
2021/06/26 08:45:16;;;;;;;20.15;4.20;;;;;;;30.44;31.06;94605.66;2992195;39;20051;-82
2021/06/26 08:47:18;;;;;;;14.18;3.42;;;;;;;30.38;31.04;94596.81;2991583;39;20047;-81
2021/06/26 08:49:20;;;;;;;13.23;3.72;;;;;;;30.56;30.81;94604.19;2991586;39;20052;-81
2021/06/26 08:51:22;;;;;;;12.45;2.90;;;;;;;30.38;31.32;94602.22;2993084;39;20135;-82
2021/06/26 08:53:23;;;;;;;20.73;3.10;;;;;;;30.67;30.83;94604.88;2993564;39;20113;-81
2021/06/26 08:55:26;;;;;;;22.45;5.85;;;;;;;30.54;30.95;94600.94;2993026;39;20084;-83
2021/06/26 08:57:36;;;;;;;17.58;2.92;;;;;;;30.81;30.75;94588.78;2983701;39;20043;-81
2021/06/26 08:59:39;;;;;;;14.07;3.70;;;;;;;30.74;30.23;94593.69;2992067;39;20055;-82
2021/06/26 09:01:41;;;;;;;18.90;3.80;;;;;;;30.67;31.29;94598.66;2992714;39;20062;-80
2021/06/26 09:03:43;;;;;;;18.50;4.40;;;;;;;30.68;30.88;94598.38;2981493;39;20059;-82
2021/06/26 09:05:46;;;;;;;16.98;3.33;;;;;;;30.73;30.84;94594.81;2976400;39;20401;-82
2021/06/26 09:07:48;;;;;;;16.67;4.30;;;;;;;31.05;30.97;94598.78;2991822;39;20093;-81
2021/06/26 09:09:50;;;;;;;15.77;2.72;;;;;;;31.21;30.45;94594.75;2984105;39;20072;-82
2021/06/26 09:11:59;;;;;;;16.42;3.63;;;;;;;31.43;30.58;94594.22;2993661;39;20142;-81
2021/06/26 09:14:01;;;;;;;15.57;3.15;;;;;;;31.56;30.45;94582.66;2980273;39;20134;-80
2021/06/26 09:16:06;;;;;;;12.77;2.67;;;;;;;31.73;30.00;94582.13;2991770;39;20071;-81
2021/06/26 09:18:14;;;;;;;15.57;3.20;;;;;;;31.73;29.93;94590.25;2994109;39;20380;-81
2021/06/26 09:20:16;;;;;;;17.55;4.32;;;;;;;31.79;30.54;94580.94;2986490;39;20047;-80
2021/06/26 09:22:17;;;;;;;13.27;2.70;;;;;;;31.89;29.09;94579.16;2988022;39;20063;-81
2021/06/26 09:24:19;;;;;;;16.95;3.22;;;;;;;31.92;29.94;94575.84;2996411;39;20084;-80
2021/06/26 09:26:21;;;;;;;15.45;5.13;;;;;;;31.71;29.29;94573.50;2989086;39;20365;-84
2021/06/26 09:28:26;;;;;;;18.33;3.47;;;;;;;31.82;29.54;94576.84;2992794;39;20087;-81